Villa Grande, California
Current Conditions -  °F | °C
As of 3:53 AM on Thursday 18 Dec 2014 (Local Time) from KSTS Reporting Station
Haze Haze  
Wind Chill: 50°   Ceiling: 1600
Heat Index: 50°   Visibility: 6mi
Dew Point: 49°   Wind: 3mph
Humidity: 96%   Direction: 10°N
Pressure: 30.06"   Gusts: NA
Location:  38.47°N, 123.02°W
Report Text: KSTS 181153Z AUTO 01003KT 6SM BR OVC016 10/09 A3006 RMK AO2 RAE53 SLP174 P0002 60020 70040 T01000094 10106 20100 50003
Loading
Personal Weather Stations






























Interactive Weather Map New forecast layout! Learn more

10-Day Weather Forecast

Advertisements
Track Severe Weather on mobile